sensor_id;sensor_type;location;lat;lon;timestamp;P1;durP1;ratioP1;P2;durP2;ratioP2
10705;SDS011;5404;42.656;23.336;2023-10-09T00:01:49;14.85;;;2.63;;
10705;SDS011;5404;42.656;23.336;2023-10-09T00:04:16;12.32;;;2.80;;
10705;SDS011;5404;42.656;23.336;2023-10-09T00:06:42;14.10;;;2.75;;
10705;SDS011;5404;42.656;23.336;2023-10-09T00:09:08;13.13;;;2.92;;
10705;SDS011;5404;42.656;23.336;2023-10-09T00:11:43;7.47;;;2.38;;
10705;SDS011;5404;42.656;23.336;2023-10-09T00:14:10;7.57;;;2.72;;
10705;SDS011;5404;42.656;23.336;2023-10-09T00:16:36;11.57;;;3.15;;
10705;SDS011;5404;42.656;23.336;2023-10-09T00:19:08;15.15;;;2.60;;
10705;SDS011;5404;42.656;23.336;2023-10-09T00:21:45;16.55;;;3.22;;
10705;SDS011;5404;42.656;23.336;2023-10-09T00:24:13;8.63;;;2.42;;
10705;SDS011;5404;42.656;23.336;2023-10-09T00:26:39;18.23;;;2.80;;
10705;SDS011;5404;42.656;23.336;2023-10-09T00:29:11;13.35;;;2.70;;
10705;SDS011;5404;42.656;23.336;2023-10-09T00:32:02;11.18;;;3.60;;
10705;SDS011;5404;42.656;23.336;2023-10-09T00:34:46;6.72;;;2.22;;
10705;SDS011;5404;42.656;23.336;2023-10-09T00:39:51;9.75;;;2.00;;
10705;SDS011;5404;42.656;23.336;2023-10-09T00:42:25;24.25;;;2.83;;
10705;SDS011;5404;42.656;23.336;2023-10-09T00:45:00;13.27;;;2.08;;
10705;SDS011;5404;42.656;23.336;2023-10-09T00:47:29;7.60;;;2.30;;
10705;SDS011;5404;42.656;23.336;2023-10-09T00:50:00;7.18;;;2.33;;
10705;SDS011;5404;42.656;23.336;2023-10-09T00:52:50;7.18;;;1.83;;
10705;SDS011;5404;42.656;23.336;2023-10-09T00:55:19;9.43;;;2.70;;
10705;SDS011;5404;42.656;23.336;2023-10-09T00:58:06;5.70;;;1.85;;
10705;SDS011;5404;42.656;23.336;2023-10-09T01:00:37;7.32;;;2.10;;
10705;SDS011;5404;42.656;23.336;2023-10-09T01:03:09;8.55;;;2.50;;
10705;SDS011;5404;42.656;23.336;2023-10-09T01:05:49;13.05;;;2.33;;
10705;SDS011;5404;42.656;23.336;2023-10-09T01:08:26;7.95;;;2.60;;
10705;SDS011;5404;42.656;23.336;2023-10-09T01:10:57;7.60;;;2.15;;
10705;SDS011;5404;42.656;23.336;2023-10-09T01:13:34;10.80;;;2.65;;
10705;SDS011;5404;42.656;23.336;2023-10-09T01:16:22;4.68;;;2.35;;
10705;SDS011;5404;42.656;23.336;2023-10-09T01:18:52;8.10;;;2.20;;
10705;SDS011;5404;42.656;23.336;2023-10-09T01:21:21;4.40;;;1.90;;
10705;SDS011;5404;42.656;23.336;2023-10-09T01:23:50;4.95;;;2.17;;
10705;SDS011;5404;42.656;23.336;2023-10-09T01:26:32;5.38;;;1.77;;
10705;SDS011;5404;42.656;23.336;2023-10-09T01:29:08;5.10;;;1.90;;
10705;SDS011;5404;42.656;23.336;2023-10-09T01:31:46;24.80;;;2.50;;
10705;SDS011;5404;42.656;23.336;2023-10-09T01:34:26;15.23;;;2.42;;
10705;SDS011;5404;42.656;23.336;2023-10-09T01:37:10;6.93;;;1.80;;
10705;SDS011;5404;42.656;23.336;2023-10-09T01:39:42;11.48;;;2.30;;
10705;SDS011;5404;42.656;23.336;2023-10-09T01:42:08;9.52;;;1.88;;
10705;SDS011;5404;42.656;23.336;2023-10-09T01:44:34;5.97;;;2.20;;
10705;SDS011;5404;42.656;23.336;2023-10-09T01:47:04;12.40;;;2.50;;
10705;SDS011;5404;42.656;23.336;2023-10-09T01:49:35;10.43;;;2.40;;
10705;SDS011;5404;42.656;23.336;2023-10-09T01:52:07;5.30;;;1.90;;
10705;SDS011;5404;42.656;23.336;2023-10-09T01:54:37;8.80;;;1.70;;
10705;SDS011;5404;42.656;23.336;2023-10-09T01:57:03;17.60;;;2.70;;
10705;SDS011;5404;42.656;23.336;2023-10-09T01:59:37;7.32;;;2.40;;
10705;SDS011;5404;42.656;23.336;2023-10-09T02:02:06;11.13;;;2.17;;
10705;SDS011;5404;42.656;23.336;2023-10-09T02:05:01;14.25;;;2.58;;
10705;SDS011;5404;42.656;23.336;2023-10-09T02:07:48;12.93;;;2.45;;
10705;SDS011;5404;42.656;23.336;2023-10-09T02:10:16;5.57;;;2.00;;
10705;SDS011;5404;42.656;23.336;2023-10-09T02:13:07;14.63;;;2.92;;
10705;SDS011;5404;42.656;23.336;2023-10-09T02:15:35;7.88;;;2.53;;
10705;SDS011;5404;42.656;23.336;2023-10-09T02:18:16;4.50;;;2.05;;
10705;SDS011;5404;42.656;23.336;2023-10-09T02:21:05;9.52;;;2.33;;
10705;SDS011;5404;42.656;23.336;2023-10-09T02:23:33;5.72;;;2.05;;
10705;SDS011;5404;42.656;23.336;2023-10-09T02:26:18;8.75;;;2.40;;
10705;SDS011;5404;42.656;23.336;2023-10-09T02:28:57;4.25;;;2.00;;
10705;SDS011;5404;42.656;23.336;2023-10-09T02:31:29;7.28;;;2.03;;
10705;SDS011;5404;42.656;23.336;2023-10-09T02:34:05;9.90;;;2.00;;
10705;SDS011;5404;42.656;23.336;2023-10-09T02:36:31;7.32;;;2.08;;
10705;SDS011;5404;42.656;23.336;2023-10-09T02:38:59;4.38;;;1.98;;
10705;SDS011;5404;42.656;23.336;2023-10-09T02:41:25;7.07;;;1.65;;
10705;SDS011;5404;42.656;23.336;2023-10-09T02:43:53;13.88;;;2.75;;
10705;SDS011;5404;42.656;23.336;2023-10-09T02:46:23;4.47;;;1.73;;
10705;SDS011;5404;42.656;23.336;2023-10-09T02:48:56;9.70;;;2.45;;
10705;SDS011;5404;42.656;23.336;2023-10-09T02:51:28;12.77;;;2.13;;
10705;SDS011;5404;42.656;23.336;2023-10-09T02:54:01;6.47;;;2.10;;
10705;SDS011;5404;42.656;23.336;2023-10-09T02:56:46;6.93;;;1.80;;
10705;SDS011;5404;42.656;23.336;2023-10-09T02:59:19;6.53;;;1.90;;
10705;SDS011;5404;42.656;23.336;2023-10-09T03:01:46;8.27;;;1.80;;
10705;SDS011;5404;42.656;23.336;2023-10-09T03:04:13;7.50;;;1.92;;
10705;SDS011;5404;42.656;23.336;2023-10-09T03:06:39;9.50;;;2.00;;
10705;SDS011;5404;42.656;23.336;2023-10-09T03:09:18;4.72;;;1.70;;
10705;SDS011;5404;42.656;23.336;2023-10-09T03:11:51;7.80;;;2.08;;
10705;SDS011;5404;42.656;23.336;2023-10-09T03:14:27;4.75;;;1.63;;
10705;SDS011;5404;42.656;23.336;2023-10-09T03:16:53;3.55;;;1.83;;
10705;SDS011;5404;42.656;23.336;2023-10-09T03:19:23;6.15;;;1.90;;
10705;SDS011;5404;42.656;23.336;2023-10-09T03:24:18;10.00;;;1.88;;
10705;SDS011;5404;42.656;23.336;2023-10-09T03:26:45;3.08;;;1.70;;
10705;SDS011;5404;42.656;23.336;2023-10-09T03:29:11;6.50;;;1.77;;
10705;SDS011;5404;42.656;23.336;2023-10-09T03:31:39;9.57;;;2.33;;
10705;SDS011;5404;42.656;23.336;2023-10-09T03:34:07;4.70;;;1.92;;
10705;SDS011;5404;42.656;23.336;2023-10-09T03:36:35;3.10;;;1.30;;
10705;SDS011;5404;42.656;23.336;2023-10-09T03:39:06;4.05;;;1.73;;
10705;SDS011;5404;42.656;23.336;2023-10-09T03:41:52;7.03;;;1.30;;
10705;SDS011;5404;42.656;23.336;2023-10-09T03:44:19;3.80;;;1.58;;
10705;SDS011;5404;42.656;23.336;2023-10-09T03:46:45;4.30;;;1.70;;
10705;SDS011;5404;42.656;23.336;2023-10-09T03:49:11;4.82;;;1.52;;
10705;SDS011;5404;42.656;23.336;2023-10-09T03:51:38;13.70;;;1.35;;
10705;SDS011;5404;42.656;23.336;2023-10-09T03:54:04;6.18;;;1.40;;
10705;SDS011;5404;42.656;23.336;2023-10-09T03:56:33;3.63;;;1.20;;
10705;SDS011;5404;42.656;23.336;2023-10-09T03:58:59;3.20;;;1.30;;
10705;SDS011;5404;42.656;23.336;2023-10-09T04:01:26;1.92;;;1.50;;
10705;SDS011;5404;42.656;23.336;2023-10-09T04:03:57;3.92;;;1.20;;
10705;SDS011;5404;42.656;23.336;2023-10-09T04:06:27;6.38;;;1.50;;
10705;SDS011;5404;42.656;23.336;2023-10-09T04:09:07;2.13;;;1.33;;
10705;SDS011;5404;42.656;23.336;2023-10-09T04:14:12;4.82;;;1.40;;
10705;SDS011;5404;42.656;23.336;2023-10-09T04:16:49;4.30;;;1.52;;
10705;SDS011;5404;42.656;23.336;2023-10-09T04:19:38;14.00;;;1.40;;
10705;SDS011;5404;42.656;23.336;2023-10-09T04:22:13;2.70;;;1.40;;
10705;SDS011;5404;42.656;23.336;2023-10-09T04:24:52;4.78;;;1.67;;
10705;SDS011;5404;42.656;23.336;2023-10-09T04:27:18;4.93;;;1.17;;
10705;SDS011;5404;42.656;23.336;2023-10-09T04:29:51;7.32;;;1.30;;
10705;SDS011;5404;42.656;23.336;2023-10-09T04:32:19;4.18;;;1.77;;
10705;SDS011;5404;42.656;23.336;2023-10-09T04:34:49;13.30;;;1.67;;
10705;SDS011;5404;42.656;23.336;2023-10-09T04:37:21;7.15;;;1.35;;
10705;SDS011;5404;42.656;23.336;2023-10-09T04:40:08;6.07;;;1.30;;
10705;SDS011;5404;42.656;23.336;2023-10-09T04:42:37;3.92;;;1.20;;
10705;SDS011;5404;42.656;23.336;2023-10-09T04:45:04;2.35;;;1.35;;
10705;SDS011;5404;42.656;23.336;2023-10-09T04:47:32;6.53;;;1.58;;
10705;SDS011;5404;42.656;23.336;2023-10-09T04:50:09;13.57;;;2.33;;
10705;SDS011;5404;42.656;23.336;2023-10-09T04:52:35;3.28;;;1.60;;
10705;SDS011;5404;42.656;23.336;2023-10-09T04:55:01;4.57;;;2.10;;
10705;SDS011;5404;42.656;23.336;2023-10-09T04:57:42;4.30;;;1.48;;
10705;SDS011;5404;42.656;23.336;2023-10-09T05:00:09;4.20;;;1.75;;
10705;SDS011;5404;42.656;23.336;2023-10-09T05:02:48;8.77;;;1.58;;
10705;SDS011;5404;42.656;23.336;2023-10-09T05:05:27;5.32;;;1.70;;
10705;SDS011;5404;42.656;23.336;2023-10-09T05:08:06;7.28;;;1.80;;
10705;SDS011;5404;42.656;23.336;2023-10-09T05:13:36;9.27;;;2.03;;
10705;SDS011;5404;42.656;23.336;2023-10-09T05:18:30;10.77;;;1.70;;
10705;SDS011;5404;42.656;23.336;2023-10-09T05:21:05;2.83;;;1.50;;
10705;SDS011;5404;42.656;23.336;2023-10-09T05:23:51;19.20;;;2.03;;
10705;SDS011;5404;42.656;23.336;2023-10-09T05:26:35;13.75;;;2.42;;
10705;SDS011;5404;42.656;23.336;2023-10-09T05:29:17;11.95;;;1.67;;
10705;SDS011;5404;42.656;23.336;2023-10-09T05:31:48;12.88;;;1.65;;
10705;SDS011;5404;42.656;23.336;2023-10-09T05:34:32;8.38;;;1.40;;
10705;SDS011;5404;42.656;23.336;2023-10-09T05:37:16;2.63;;;1.30;;
10705;SDS011;5404;42.656;23.336;2023-10-09T05:39:50;5.80;;;1.23;;
10705;SDS011;5404;42.656;23.336;2023-10-09T05:42:26;3.15;;;1.58;;
10705;SDS011;5404;42.656;23.336;2023-10-09T05:45:10;2.13;;;1.17;;
10705;SDS011;5404;42.656;23.336;2023-10-09T05:47:43;4.22;;;1.75;;
10705;SDS011;5404;42.656;23.336;2023-10-09T05:50:25;4.55;;;1.60;;
10705;SDS011;5404;42.656;23.336;2023-10-09T05:52:52;3.75;;;1.50;;
10705;SDS011;5404;42.656;23.336;2023-10-09T05:55:18;6.70;;;1.25;;
10705;SDS011;5404;42.656;23.336;2023-10-09T05:57:44;9.20;;;1.67;;
10705;SDS011;5404;42.656;23.336;2023-10-09T06:00:22;8.00;;;1.70;;
10705;SDS011;5404;42.656;23.336;2023-10-09T06:03:06;3.88;;;1.58;;
10705;SDS011;5404;42.656;23.336;2023-10-09T06:06:02;3.65;;;1.70;;
10705;SDS011;5404;42.656;23.336;2023-10-09T06:08:29;7.03;;;1.90;;
10705;SDS011;5404;42.656;23.336;2023-10-09T06:11:06;2.45;;;1.55;;
10705;SDS011;5404;42.656;23.336;2023-10-09T06:13:55;17.33;;;1.88;;
10705;SDS011;5404;42.656;23.336;2023-10-09T06:16:34;12.57;;;1.73;;
10705;SDS011;5404;42.656;23.336;2023-10-09T06:19:15;3.08;;;1.40;;
10705;SDS011;5404;42.656;23.336;2023-10-09T06:21:47;9.25;;;1.60;;
10705;SDS011;5404;42.656;23.336;2023-10-09T06:24:18;8.75;;;1.65;;
10705;SDS011;5404;42.656;23.336;2023-10-09T06:26:45;3.38;;;1.30;;
10705;SDS011;5404;42.656;23.336;2023-10-09T06:29:23;1.40;;;1.25;;
10705;SDS011;5404;42.656;23.336;2023-10-09T06:32:01;5.28;;;1.60;;
10705;SDS011;5404;42.656;23.336;2023-10-09T06:34:43;3.22;;;1.40;;
10705;SDS011;5404;42.656;23.336;2023-10-09T06:37:20;5.22;;;1.77;;
10705;SDS011;5404;42.656;23.336;2023-10-09T06:39:49;3.72;;;1.45;;
10705;SDS011;5404;42.656;23.336;2023-10-09T06:42:27;4.03;;;1.67;;
10705;SDS011;5404;42.656;23.336;2023-10-09T06:45:09;13.63;;;1.57;;
10705;SDS011;5404;42.656;23.336;2023-10-09T06:47:39;2.28;;;1.40;;
10705;SDS011;5404;42.656;23.336;2023-10-09T06:50:34;10.95;;;1.73;;
10705;SDS011;5404;42.656;23.336;2023-10-09T06:53:18;6.13;;;1.63;;
10705;SDS011;5404;42.656;23.336;2023-10-09T06:55:44;3.83;;;1.20;;
10705;SDS011;5404;42.656;23.336;2023-10-09T06:58:18;3.60;;;1.40;;
10705;SDS011;5404;42.656;23.336;2023-10-09T07:00:54;7.03;;;1.35;;
10705;SDS011;5404;42.656;23.336;2023-10-09T07:03:23;15.18;;;1.73;;
10705;SDS011;5404;42.656;23.336;2023-10-09T07:06:08;3.65;;;1.60;;
10705;SDS011;5404;42.656;23.336;2023-10-09T07:08:48;5.90;;;1.20;;
10705;SDS011;5404;42.656;23.336;2023-10-09T07:11:32;2.22;;;1.33;;
10705;SDS011;5404;42.656;23.336;2023-10-09T07:17:00;1.58;;;1.25;;
10705;SDS011;5404;42.656;23.336;2023-10-09T07:19:41;3.70;;;1.55;;
10705;SDS011;5404;42.656;23.336;2023-10-09T07:22:07;5.65;;;1.95;;
10705;SDS011;5404;42.656;23.336;2023-10-09T07:24:45;2.38;;;1.50;;
10705;SDS011;5404;42.656;23.336;2023-10-09T07:27:17;5.05;;;1.60;;
10705;SDS011;5404;42.656;23.336;2023-10-09T07:30:04;2.20;;;1.50;;
10705;SDS011;5404;42.656;23.336;2023-10-09T07:32:50;13.13;;;1.60;;
10705;SDS011;5404;42.656;23.336;2023-10-09T07:35:19;3.45;;;1.55;;
10705;SDS011;5404;42.656;23.336;2023-10-09T07:38:05;3.10;;;1.48;;
10705;SDS011;5404;42.656;23.336;2023-10-09T07:40:33;8.18;;;1.70;;
10705;SDS011;5404;42.656;23.336;2023-10-09T07:43:20;7.45;;;1.45;;
10705;SDS011;5404;42.656;23.336;2023-10-09T07:45:51;4.47;;;2.20;;
10705;SDS011;5404;42.656;23.336;2023-10-09T07:48:26;2.78;;;1.55;;
10705;SDS011;5404;42.656;23.336;2023-10-09T07:50:51;7.73;;;2.10;;
10705;SDS011;5404;42.656;23.336;2023-10-09T07:53:22;3.35;;;1.73;;
10705;SDS011;5404;42.656;23.336;2023-10-09T07:55:54;6.00;;;1.60;;
10705;SDS011;5404;42.656;23.336;2023-10-09T07:58:23;4.90;;;1.45;;
10705;SDS011;5404;42.656;23.336;2023-10-09T08:00:54;11.10;;;1.70;;
10705;SDS011;5404;42.656;23.336;2023-10-09T08:03:26;4.30;;;1.73;;
10705;SDS011;5404;42.656;23.336;2023-10-09T08:05:57;6.70;;;1.42;;
10705;SDS011;5404;42.656;23.336;2023-10-09T08:08:32;6.63;;;1.40;;
10705;SDS011;5404;42.656;23.336;2023-10-09T08:10:58;6.30;;;1.70;;
10705;SDS011;5404;42.656;23.336;2023-10-09T08:13:42;2.75;;;1.50;;
10705;SDS011;5404;42.656;23.336;2023-10-09T08:16:26;3.88;;;1.33;;
10705;SDS011;5404;42.656;23.336;2023-10-09T08:19:01;1.65;;;1.33;;
10705;SDS011;5404;42.656;23.336;2023-10-09T08:21:45;7.50;;;1.42;;
10705;SDS011;5404;42.656;23.336;2023-10-09T08:24:31;4.95;;;1.60;;
10705;SDS011;5404;42.656;23.336;2023-10-09T08:27:17;4.22;;;1.20;;
10705;SDS011;5404;42.656;23.336;2023-10-09T08:30:02;10.57;;;2.08;;
10705;SDS011;5404;42.656;23.336;2023-10-09T08:32:48;8.77;;;1.60;;
10705;SDS011;5404;42.656;23.336;2023-10-09T08:35:50;5.80;;;1.33;;
10705;SDS011;5404;42.656;23.336;2023-10-09T08:38:16;4.05;;;1.35;;
10705;SDS011;5404;42.656;23.336;2023-10-09T08:40:48;1.65;;;1.20;;
10705;SDS011;5404;42.656;23.336;2023-10-09T08:43:16;1.88;;;1.17;;
10705;SDS011;5404;42.656;23.336;2023-10-09T08:45:46;5.30;;;1.33;;
10705;SDS011;5404;42.656;23.336;2023-10-09T08:48:18;1.77;;;1.20;;
10705;SDS011;5404;42.656;23.336;2023-10-09T08:50:47;2.50;;;1.40;;
10705;SDS011;5404;42.656;23.336;2023-10-09T08:53:19;3.65;;;1.20;;
10705;SDS011;5404;42.656;23.336;2023-10-09T08:55:46;2.40;;;1.30;;
10705;SDS011;5404;42.656;23.336;2023-10-09T08:58:12;1.85;;;1.20;;
10705;SDS011;5404;42.656;23.336;2023-10-09T09:01:01;8.32;;;1.65;;
10705;SDS011;5404;42.656;23.336;2023-10-09T09:03:34;6.72;;;1.55;;
10705;SDS011;5404;42.656;23.336;2023-10-09T09:06:03;2.78;;;1.23;;
10705;SDS011;5404;42.656;23.336;2023-10-09T09:10:51;6.72;;;1.55;;
10705;SDS011;5404;42.656;23.336;2023-10-09T09:13:23;2.97;;;1.50;;
10705;SDS011;5404;42.656;23.336;2023-10-09T09:15:49;4.80;;;1.58;;
10705;SDS011;5404;42.656;23.336;2023-10-09T09:20:43;2.88;;;1.33;;
10705;SDS011;5404;42.656;23.336;2023-10-09T09:23:12;2.85;;;1.27;;
10705;SDS011;5404;42.656;23.336;2023-10-09T09:25:45;2.42;;;1.45;;
10705;SDS011;5404;42.656;23.336;2023-10-09T09:28:13;3.85;;;1.48;;
10705;SDS011;5404;42.656;23.336;2023-10-09T09:30:46;7.28;;;1.10;;
10705;SDS011;5404;42.656;23.336;2023-10-09T09:33:26;2.42;;;1.25;;
10705;SDS011;5404;42.656;23.336;2023-10-09T09:36:04;2.63;;;1.38;;
10705;SDS011;5404;42.656;23.336;2023-10-09T09:38:31;2.85;;;1.30;;
10705;SDS011;5404;42.656;23.336;2023-10-09T09:41:17;2.20;;;1.40;;
10705;SDS011;5404;42.656;23.336;2023-10-09T09:43:51;11.02;;;1.52;;
10705;SDS011;5404;42.656;23.336;2023-10-09T09:46:27;5.18;;;1.27;;
10705;SDS011;5404;42.656;23.336;2023-10-09T09:49:02;8.82;;;1.70;;
10705;SDS011;5404;42.656;23.336;2023-10-09T09:51:30;12.82;;;2.20;;
10705;SDS011;5404;42.656;23.336;2023-10-09T09:53:56;10.95;;;1.80;;
10705;SDS011;5404;42.656;23.336;2023-10-09T09:56:25;5.40;;;1.50;;
10705;SDS011;5404;42.656;23.336;2023-10-09T09:58:53;2.15;;;1.33;;
10705;SDS011;5404;42.656;23.336;2023-10-09T10:01:23;5.25;;;1.52;;
10705;SDS011;5404;42.656;23.336;2023-10-09T10:04:03;7.25;;;1.20;;
10705;SDS011;5404;42.656;23.336;2023-10-09T10:06:36;4.60;;;1.42;;
10705;SDS011;5404;42.656;23.336;2023-10-09T10:11:47;6.72;;;2.03;;
10705;SDS011;5404;42.656;23.336;2023-10-09T10:14:17;3.10;;;1.25;;
10705;SDS011;5404;42.656;23.336;2023-10-09T10:17:09;5.90;;;1.70;;
10705;SDS011;5404;42.656;23.336;2023-10-09T10:20:02;6.47;;;1.83;;
10705;SDS011;5404;42.656;23.336;2023-10-09T10:22:43;6.85;;;1.55;;
10705;SDS011;5404;42.656;23.336;2023-10-09T10:28:16;6.90;;;1.40;;
10705;SDS011;5404;42.656;23.336;2023-10-09T10:30:53;4.15;;;1.42;;
10705;SDS011;5404;42.656;23.336;2023-10-09T10:33:20;7.55;;;1.67;;
10705;SDS011;5404;42.656;23.336;2023-10-09T10:35:47;9.27;;;2.22;;
10705;SDS011;5404;42.656;23.336;2023-10-09T10:38:27;3.75;;;1.42;;
10705;SDS011;5404;42.656;23.336;2023-10-09T10:41:11;2.10;;;1.25;;
10705;SDS011;5404;42.656;23.336;2023-10-09T10:43:39;6.60;;;1.50;;
10705;SDS011;5404;42.656;23.336;2023-10-09T10:46:26;4.32;;;1.50;;
10705;SDS011;5404;42.656;23.336;2023-10-09T10:48:55;1.75;;;1.20;;
10705;SDS011;5404;42.656;23.336;2023-10-09T10:51:40;8.90;;;1.70;;
10705;SDS011;5404;42.656;23.336;2023-10-09T10:54:12;2.15;;;1.40;;
10705;SDS011;5404;42.656;23.336;2023-10-09T10:56:57;4.65;;;1.90;;
10705;SDS011;5404;42.656;23.336;2023-10-09T10:59:23;11.15;;;1.55;;
10705;SDS011;5404;42.656;23.336;2023-10-09T11:01:50;4.78;;;1.63;;
10705;SDS011;5404;42.656;23.336;2023-10-09T11:04:39;4.43;;;2.15;;
10705;SDS011;5404;42.656;23.336;2023-10-09T11:07:06;9.10;;;1.75;;
10705;SDS011;5404;42.656;23.336;2023-10-09T11:09:57;2.28;;;1.45;;
10705;SDS011;5404;42.656;23.336;2023-10-09T11:12:27;5.03;;;1.98;;
10705;SDS011;5404;42.656;23.336;2023-10-09T11:15:05;5.30;;;1.67;;
10705;SDS011;5404;42.656;23.336;2023-10-09T11:17:34;5.55;;;1.85;;
10705;SDS011;5404;42.656;23.336;2023-10-09T11:20:03;7.10;;;1.98;;
10705;SDS011;5404;42.656;23.336;2023-10-09T11:22:53;2.88;;;1.92;;
10705;SDS011;5404;42.656;23.336;2023-10-09T11:25:52;5.63;;;1.55;;
10705;SDS011;5404;42.656;23.336;2023-10-09T11:31:11;20.20;;;1.58;;
10705;SDS011;5404;42.656;23.336;2023-10-09T11:36:08;2.80;;;1.35;;
10705;SDS011;5404;42.656;23.336;2023-10-09T11:38:37;2.05;;;1.25;;
10705;SDS011;5404;42.656;23.336;2023-10-09T11:41:13;6.20;;;2.65;;
10705;SDS011;5404;42.656;23.336;2023-10-09T11:43:52;14.05;;;2.90;;
10705;SDS011;5404;42.656;23.336;2023-10-09T11:46:20;9.63;;;3.17;;
10705;SDS011;5404;42.656;23.336;2023-10-09T11:49:08;5.45;;;2.70;;
10705;SDS011;5404;42.656;23.336;2023-10-09T11:51:40;9.70;;;2.85;;
10705;SDS011;5404;42.656;23.336;2023-10-09T11:54:29;6.47;;;3.45;;
10705;SDS011;5404;42.656;23.336;2023-10-09T11:56:56;13.43;;;3.63;;
10705;SDS011;5404;42.656;23.336;2023-10-09T11:59:22;9.68;;;3.90;;
10705;SDS011;5404;42.656;23.336;2023-10-09T12:01:48;6.53;;;3.60;;
10705;SDS011;5404;42.656;23.336;2023-10-09T12:04:18;5.88;;;2.45;;
10705;SDS011;5404;42.656;23.336;2023-10-09T12:06:44;4.88;;;2.30;;
10705;SDS011;5404;42.656;23.336;2023-10-09T12:09:09;5.47;;;2.15;;
10705;SDS011;5404;42.656;23.336;2023-10-09T12:11:49;4.18;;;2.13;;
10705;SDS011;5404;42.656;23.336;2023-10-09T12:14:17;16.67;;;3.35;;
10705;SDS011;5404;42.656;23.336;2023-10-09T12:16:48;12.70;;;3.70;;
10705;SDS011;5404;42.656;23.336;2023-10-09T12:19:15;9.80;;;3.00;;
10705;SDS011;5404;42.656;23.336;2023-10-09T12:21:40;6.90;;;3.10;;
10705;SDS011;5404;42.656;23.336;2023-10-09T12:24:08;7.75;;;2.92;;
10705;SDS011;5404;42.656;23.336;2023-10-09T12:29:04;9.98;;;1.98;;
10705;SDS011;5404;42.656;23.336;2023-10-09T12:31:36;9.93;;;1.88;;
10705;SDS011;5404;42.656;23.336;2023-10-09T12:34:02;4.70;;;2.83;;
10705;SDS011;5404;42.656;23.336;2023-10-09T12:36:27;8.95;;;2.10;;
10705;SDS011;5404;42.656;23.336;2023-10-09T12:38:53;3.20;;;1.80;;
10705;SDS011;5404;42.656;23.336;2023-10-09T12:41:24;5.82;;;1.35;;
10705;SDS011;5404;42.656;23.336;2023-10-09T12:43:49;15.30;;;1.83;;
10705;SDS011;5404;42.656;23.336;2023-10-09T12:46:17;10.23;;;1.50;;
10705;SDS011;5404;42.656;23.336;2023-10-09T12:48:50;9.73;;;2.33;;
10705;SDS011;5404;42.656;23.336;2023-10-09T12:51:23;5.80;;;1.70;;
10705;SDS011;5404;42.656;23.336;2023-10-09T12:53:55;4.13;;;1.35;;
10705;SDS011;5404;42.656;23.336;2023-10-09T12:56:26;6.18;;;1.80;;
10705;SDS011;5404;42.656;23.336;2023-10-09T12:59:01;7.28;;;1.85;;
10705;SDS011;5404;42.656;23.336;2023-10-09T13:01:30;2.20;;;1.13;;
10705;SDS011;5404;42.656;23.336;2023-10-09T13:04:11;4.53;;;1.77;;
10705;SDS011;5404;42.656;23.336;2023-10-09T13:06:40;5.38;;;1.60;;
10705;SDS011;5404;42.656;23.336;2023-10-09T13:09:18;5.50;;;1.65;;
10705;SDS011;5404;42.656;23.336;2023-10-09T13:11:50;4.40;;;1.52;;
10705;SDS011;5404;42.656;23.336;2023-10-09T13:14:15;8.55;;;1.27;;
10705;SDS011;5404;42.656;23.336;2023-10-09T13:16:44;7.63;;;1.60;;
10705;SDS011;5404;42.656;23.336;2023-10-09T13:19:11;2.30;;;1.50;;
10705;SDS011;5404;42.656;23.336;2023-10-09T13:21:36;2.20;;;1.20;;
10705;SDS011;5404;42.656;23.336;2023-10-09T13:24:04;4.20;;;1.58;;
10705;SDS011;5404;42.656;23.336;2023-10-09T13:26:30;2.85;;;1.33;;
10705;SDS011;5404;42.656;23.336;2023-10-09T13:28:58;4.15;;;1.67;;
10705;SDS011;5404;42.656;23.336;2023-10-09T13:31:27;6.70;;;1.73;;
10705;SDS011;5404;42.656;23.336;2023-10-09T13:33:57;11.18;;;1.75;;
10705;SDS011;5404;42.656;23.336;2023-10-09T13:36:24;3.00;;;1.58;;
10705;SDS011;5404;42.656;23.336;2023-10-09T13:39:00;10.90;;;2.42;;
10705;SDS011;5404;42.656;23.336;2023-10-09T13:41:46;3.47;;;1.67;;
10705;SDS011;5404;42.656;23.336;2023-10-09T13:44:13;2.60;;;1.50;;
10705;SDS011;5404;42.656;23.336;2023-10-09T13:46:38;6.07;;;1.63;;
10705;SDS011;5404;42.656;23.336;2023-10-09T13:49:09;4.70;;;2.00;;
10705;SDS011;5404;42.656;23.336;2023-10-09T13:51:39;7.00;;;2.00;;
10705;SDS011;5404;42.656;23.336;2023-10-09T13:54:11;7.65;;;1.75;;
10705;SDS011;5404;42.656;23.336;2023-10-09T13:56:45;11.25;;;1.98;;
10705;SDS011;5404;42.656;23.336;2023-10-09T13:59:11;6.15;;;1.60;;
10705;SDS011;5404;42.656;23.336;2023-10-09T14:01:37;1.83;;;1.38;;
10705;SDS011;5404;42.656;23.336;2023-10-09T14:04:04;21.42;;;2.80;;
10705;SDS011;5404;42.656;23.336;2023-10-09T14:06:31;3.08;;;1.70;;
10705;SDS011;5404;42.656;23.336;2023-10-09T14:09:00;4.38;;;1.35;;
10705;SDS011;5404;42.656;23.336;2023-10-09T14:11:29;7.15;;;1.55;;
10705;SDS011;5404;42.656;23.336;2023-10-09T14:13:56;3.30;;;1.90;;
10705;SDS011;5404;42.656;23.336;2023-10-09T14:16:21;6.70;;;2.17;;
10705;SDS011;5404;42.656;23.336;2023-10-09T14:18:53;5.38;;;2.08;;
10705;SDS011;5404;42.656;23.336;2023-10-09T14:21:22;4.40;;;2.10;;
10705;SDS011;5404;42.656;23.336;2023-10-09T14:23:53;11.55;;;2.13;;
10705;SDS011;5404;42.656;23.336;2023-10-09T14:26:22;10.35;;;2.30;;
10705;SDS011;5404;42.656;23.336;2023-10-09T14:28:50;7.55;;;2.53;;
10705;SDS011;5404;42.656;23.336;2023-10-09T14:31:17;7.57;;;3.10;;
10705;SDS011;5404;42.656;23.336;2023-10-09T14:33:47;8.60;;;2.90;;
10705;SDS011;5404;42.656;23.336;2023-10-09T14:36:17;11.80;;;3.30;;
10705;SDS011;5404;42.656;23.336;2023-10-09T14:38:43;8.50;;;2.25;;
10705;SDS011;5404;42.656;23.336;2023-10-09T14:41:12;12.52;;;3.05;;
10705;SDS011;5404;42.656;23.336;2023-10-09T14:43:37;14.82;;;2.65;;
10705;SDS011;5404;42.656;23.336;2023-10-09T14:46:04;14.70;;;2.22;;
10705;SDS011;5404;42.656;23.336;2023-10-09T14:48:36;11.57;;;2.35;;
10705;SDS011;5404;42.656;23.336;2023-10-09T14:51:02;4.50;;;2.42;;
10705;SDS011;5404;42.656;23.336;2023-10-09T14:53:32;25.08;;;3.65;;
10705;SDS011;5404;42.656;23.336;2023-10-09T14:55:59;16.60;;;2.78;;
10705;SDS011;5404;42.656;23.336;2023-10-09T14:58:26;14.85;;;2.35;;
10705;SDS011;5404;42.656;23.336;2023-10-09T15:00:54;16.25;;;2.97;;
10705;SDS011;5404;42.656;23.336;2023-10-09T15:03:20;12.90;;;4.28;;
10705;SDS011;5404;42.656;23.336;2023-10-09T15:05:48;12.57;;;2.88;;
10705;SDS011;5404;42.656;23.336;2023-10-09T15:08:14;7.65;;;2.78;;
10705;SDS011;5404;42.656;23.336;2023-10-09T15:10:47;10.95;;;2.25;;
10705;SDS011;5404;42.656;23.336;2023-10-09T15:13:14;8.65;;;2.83;;
10705;SDS011;5404;42.656;23.336;2023-10-09T15:15:41;11.98;;;3.30;;
10705;SDS011;5404;42.656;23.336;2023-10-09T15:18:11;13.63;;;3.20;;
10705;SDS011;5404;42.656;23.336;2023-10-09T15:20:37;17.17;;;2.75;;
10705;SDS011;5404;42.656;23.336;2023-10-09T15:23:05;6.72;;;3.03;;
10705;SDS011;5404;42.656;23.336;2023-10-09T15:25:31;13.00;;;3.58;;
10705;SDS011;5404;42.656;23.336;2023-10-09T15:28:07;10.18;;;3.03;;
10705;SDS011;5404;42.656;23.336;2023-10-09T15:30:34;9.93;;;2.63;;
10705;SDS011;5404;42.656;23.336;2023-10-09T15:33:03;8.00;;;2.97;;
10705;SDS011;5404;42.656;23.336;2023-10-09T15:35:30;5.80;;;3.17;;
10705;SDS011;5404;42.656;23.336;2023-10-09T15:37:58;16.42;;;3.58;;
10705;SDS011;5404;42.656;23.336;2023-10-09T15:40:28;35.92;;;2.67;;
10705;SDS011;5404;42.656;23.336;2023-10-09T15:43:00;18.90;;;3.75;;
10705;SDS011;5404;42.656;23.336;2023-10-09T15:45:26;13.75;;;4.05;;
10705;SDS011;5404;42.656;23.336;2023-10-09T15:47:54;8.73;;;3.75;;
10705;SDS011;5404;42.656;23.336;2023-10-09T15:50:20;11.02;;;3.20;;
10705;SDS011;5404;42.656;23.336;2023-10-09T15:52:51;18.50;;;3.40;;
10705;SDS011;5404;42.656;23.336;2023-10-09T15:55:18;8.35;;;3.38;;